TimeCDT,TemperatureF,Dew PointF,Humidity,Sea Level PressureIn,VisibilityMPH,Wind Direction,Wind SpeedMPH,Gust SpeedMPH,PrecipitationIn,Events,Conditions,WindDirDegrees,DateUTC
12:08 AM,68.0,65.1,90,-9999,-9999.0,NNE,6.9,-,N/A,,Unknown,30,2013-07-11 05:08:00
12:28 AM,68.0,65.1,90,-9999,-9999.0,South,4.6,-,N/A,,Unknown,180,2013-07-11 05:28:00
12:48 AM,68.0,65.1,90,-9999,-9999.0,SSE,8.1,-,N/A,,Unknown,150,2013-07-11 05:48:00
1:08 AM,68.0,65.1,90,-9999,-9999.0,SSE,4.6,-,N/A,,Unknown,160,2013-07-11 06:08:00
1:28 AM,68.0,63.1,84,-9999,-9999.0,South,5.8,-,N/A,,Unknown,190,2013-07-11 06:28:00
1:48 AM,68.0,63.1,84,-9999,-9999.0,South,3.5,-,N/A,,Unknown,190,2013-07-11 06:48:00
2:08 AM,68.0,63.1,84,-9999,-9999.0,SSE,5.8,-,N/A,,Unknown,150,2013-07-11 07:08:00
2:28 AM,68.0,63.1,84,-9999,-9999.0,SW,4.6,-,N/A,,Unknown,220,2013-07-11 07:28:00
2:48 AM,69.1,63.1,81,-9999,-9999.0,East,4.6,-,N/A,,Unknown,90,2013-07-11 07:48:00
3:08 AM,70.0,64.0,81,-9999,-9999.0,North,8.1,-,N/A,,Unknown,360,2013-07-11 08:08:00
3:28 AM,68.0,63.1,84,-9999,-9999.0,North,4.6,-,N/A,,Unknown,360,2013-07-11 08:28:00
3:48 AM,68.0,64.0,87,-9999,-9999.0,North,3.5,-,N/A,,Unknown,350,2013-07-11 08:48:00
4:08 AM,68.0,64.0,87,-9999,-9999.0,NNW,3.5,-,N/A,,Unknown,330,2013-07-11 09:08:00
4:28 AM,68.0,64.0,87,-9999,-9999.0,NW,4.6,-,N/A,,Unknown,310,2013-07-11 09:28:00
4:48 AM,66.9,62.1,84,-9999,-9999.0,NNW,6.9,-,N/A,,Unknown,340,2013-07-11 09:48:00
5:08 AM,66.9,63.1,88,-9999,-9999.0,NNW,4.6,-,N/A,,Unknown,340,2013-07-11 10:08:00
5:28 AM,68.0,63.1,84,-9999,-9999.0,WNW,3.5,-,N/A,,Unknown,300,2013-07-11 10:28:00
5:48 AM,68.0,62.1,81,-9999,-9999.0,West,8.1,-,N/A,,Unknown,260,2013-07-11 10:48:00
6:08 AM,69.1,61.2,76,-9999,-9999.0,WSW,10.4,-,N/A,,Unknown,240,2013-07-11 11:08:00
6:28 AM,72.0,60.1,66,-9999,-9999.0,SW,11.5,-,N/A,,Unknown,230,2013-07-11 11:28:00
6:48 AM,71.1,61.2,71,-9999,-9999.0,SW,8.1,-,N/A,,Unknown,230,2013-07-11 11:48:00
7:08 AM,72.0,61.2,69,-9999,-9999.0,WSW,8.1,-,N/A,,Unknown,250,2013-07-11 12:08:00
7:28 AM,71.1,61.2,71,-9999,-9999.0,West,10.4,-,N/A,,Unknown,260,2013-07-11 12:28:00
7:48 AM,72.0,60.1,66,-9999,-9999.0,WSW,12.7,-,N/A,,Unknown,250,2013-07-11 12:48:00
8:08 AM,72.0,62.1,71,-9999,-9999.0,WSW,10.4,-,N/A,,Unknown,240,2013-07-11 13:08:00
8:28 AM,72.0,63.1,74,-9999,-9999.0,SSW,5.8,-,N/A,,Unknown,210,2013-07-11 13:28:00
8:48 AM,73.9,63.1,69,-9999,-9999.0,SW,6.9,-,N/A,,Unknown,220,2013-07-11 13:48:00
9:08 AM,73.0,64.0,73,-9999,-9999.0,SSE,5.8,-,N/A,,Unknown,150,2013-07-11 14:08:00
9:28 AM,73.9,64.0,71,-9999,-9999.0,SE,8.1,-,N/A,,Unknown,140,2013-07-11 14:28:00
9:48 AM,73.0,64.0,73,-9999,-9999.0,East,10.4,-,N/A,,Unknown,100,2013-07-11 14:48:00
10:08 AM,72.0,64.0,76,-9999,-9999.0,SE,12.7,-,N/A,,Unknown,130,2013-07-11 15:08:00
10:28 AM,72.0,64.0,76,-9999,-9999.0,SE,9.2,-,N/A,,Unknown,140,2013-07-11 15:28:00
10:48 AM,73.0,66.0,79,-9999,-9999.0,SE,8.1,-,N/A,,Unknown,140,2013-07-11 15:48:00
11:08 AM,-9999,-9999,N/A,-9999,-9999.0,North,-9999.0,-,N/A,,Unknown,0,2013-07-11 16:08:00
11:28 AM,79.0,67.1,67,-9999,-9999.0,SE,12.7,-,N/A,,Unknown,130,2013-07-11 16:28:00
11:48 AM,80.1,67.1,64,-9999,-9999.0,SE,11.5,-,N/A,,Unknown,140,2013-07-11 16:48:00
12:08 PM,82.0,66.0,58,-9999,-9999.0,SE,13.8,-,N/A,,Unknown,140,2013-07-11 17:08:00
12:28 PM,84.0,65.1,53,-9999,-9999.0,SSE,13.8,-,N/A,,Unknown,150,2013-07-11 17:28:00
12:48 PM,84.0,65.1,53,-9999,-9999.0,SSE,13.8,-,N/A,,Unknown,150,2013-07-11 17:48:00
1:08 PM,86.0,63.1,46,-9999,-9999.0,SSE,16.1,-,N/A,,Unknown,160,2013-07-11 18:08:00
1:28 PM,87.1,63.1,45,-9999,-9999.0,SSE,13.8,-,N/A,,Unknown,150,2013-07-11 18:28:00
1:48 PM,88.0,64.0,45,-9999,-9999.0,SSE,11.5,-,N/A,,Unknown,160,2013-07-11 18:48:00
2:08 PM,86.0,62.1,44,-9999,-9999.0,South,12.7,-,N/A,,Unknown,170,2013-07-11 19:08:00
2:28 PM,-9999,-9999,N/A,-9999,-9999.0,North,-9999.0,-,N/A,,Unknown,0,2013-07-11 19:28:00
2:48 PM,87.1,63.1,45,-9999,-9999.0,SSE,12.7,-,N/A,,Unknown,150,2013-07-11 19:48:00
3:08 PM,89.1,63.1,42,-9999,-9999.0,SE,12.7,-,N/A,,Unknown,140,2013-07-11 20:08:00
3:28 PM,89.1,64.0,43,-9999,-9999.0,SSE,13.8,-,N/A,,Unknown,150,2013-07-11 20:28:00
3:48 PM,90.0,65.1,44,-9999,-9999.0,SSE,15.0,-,N/A,,Unknown,150,2013-07-11 20:48:00
4:08 PM,89.1,63.1,42,-9999,-9999.0,SSE,16.1,-,N/A,,Unknown,150,2013-07-11 21:08:00
4:28 PM,90.0,64.0,42,-9999,-9999.0,SSE,13.8,-,N/A,,Unknown,160,2013-07-11 21:28:00
4:48 PM,90.0,63.1,41,-9999,-9999.0,SSE,16.1,-,N/A,,Unknown,160,2013-07-11 21:48:00
5:08 PM,90.0,62.1,39,-9999,-9999.0,SSE,11.5,-,N/A,,Unknown,150,2013-07-11 22:08:00
5:28 PM,91.0,64.0,41,-9999,-9999.0,SSE,13.8,-,N/A,,Unknown,150,2013-07-11 22:28:00
5:48 PM,91.0,63.1,39,-9999,-9999.0,SSE,15.0,-,N/A,,Unknown,150,2013-07-11 22:48:00
6:08 PM,91.0,63.1,39,-9999,-9999.0,SSE,12.7,-,N/A,,Unknown,150,2013-07-11 23:08:00
6:28 PM,91.0,64.0,41,-9999,-9999.0,SSE,15.0,-,N/A,,Unknown,150,2013-07-11 23:28:00
6:48 PM,90.0,64.0,42,-9999,-9999.0,SSE,11.5,-,N/A,,Unknown,150,2013-07-11 23:48:00
7:08 PM,90.0,64.0,42,-9999,-9999.0,SSE,11.5,-,N/A,,Unknown,150,2013-07-12 00:08:00
7:28 PM,89.1,64.0,43,-9999,-9999.0,SE,13.8,-,N/A,,Unknown,140,2013-07-12 00:28:00
7:48 PM,88.0,63.1,43,-9999,-9999.0,SE,13.8,-,N/A,,Unknown,140,2013-07-12 00:48:00
8:08 PM,87.1,63.1,45,-9999,-9999.0,SE,13.8,-,N/A,,Unknown,130,2013-07-12 01:08:00
8:28 PM,86.0,61.2,43,-9999,-9999.0,SSE,18.4,-,N/A,,Unknown,150,2013-07-12 01:28:00
8:48 PM,82.9,62.1,49,-9999,-9999.0,SSE,11.5,-,N/A,,Unknown,150,2013-07-12 01:48:00
9:08 PM,81.0,62.1,52,-9999,-9999.0,SSE,11.5,-,N/A,,Unknown,150,2013-07-12 02:08:00
9:28 PM,79.0,62.1,56,-9999,-9999.0,SE,13.8,-,N/A,,Unknown,140,2013-07-12 02:28:00
9:48 PM,78.1,61.2,56,-9999,-9999.0,SE,13.8,-,N/A,,Unknown,140,2013-07-12 02:48:00
10:08 PM,-9999,-9999,N/A,-9999,-9999.0,North,-9999.0,-,N/A,,Unknown,0,2013-07-12 03:08:00
10:28 PM,75.9,61.2,60,-9999,-9999.0,SSE,15.0,-,N/A,,Unknown,150,2013-07-12 03:28:00
10:48 PM,75.0,61.2,62,-9999,-9999.0,SSE,13.8,-,N/A,,Unknown,160,2013-07-12 03:48:00
11:08 PM,73.9,62.1,66,-9999,-9999.0,SSE,10.4,-,N/A,,Unknown,160,2013-07-12 04:08:00
11:28 PM,73.9,62.1,66,-9999,-9999.0,SSE,11.5,-,N/A,,Unknown,150,2013-07-12 04:28:00
11:48 PM,73.0,61.2,66,-9999,-9999.0,SSE,11.5,-,N/A,,Unknown,160,2013-07-12 04:48:00